Mount Pleasant, Iowa
Current Conditions -  °F | °C
As of 5:15 AM on Saturday 25 Oct 2014 (Local Time) from KMPZ Reporting Station
Haze Haze  
Wind Chill: 52°   Ceiling: Unl
Heat Index: 52°   Visibility: 5mi
Dew Point: 52°   Wind: 0mph
Humidity: 100%   Direction: NA
Pressure: 29.97"   Gusts: NA
Location:  40.97°N, 91.55°W
Report Text: KMPZ 251015Z AUTO 00000KT 5SM BR CLR 11/11 A2997 RMK AO2 T01110111
Loading
Personal Weather Stations






























Interactive Weather Map
Tropical Storm Tracking
New forecast layout! Learn more

10-Day Weather Forecast

Advertisements
Track Severe Weather on mobile